Time;durP1;ratioP1;P1;durP2;ratioP2;P2;SDS_P1;SDS_P2;PMS_P1;PMS_P2;Temp;Humidity;BMP_temperature;BMP_pressure;BME280_temperature;BME280_humidity;BME280_pressure;Samples;Min_cycle;Max_cycle;Signal;HPM_P1;HPM_P2
2023/06/20 00:00:50;;;;;;;16.40;9.35;;;17.80;99.90;;;;;;4954850;28;20051;-86
2023/06/20 00:03:16;;;;;;;15.77;9.40;;;17.80;99.90;;;;;;4953795;29;20040;-87
2023/06/20 00:05:42;;;;;;;16.92;9.40;;;17.70;99.90;;;;;;4937617;29;20078;-86
2023/06/20 00:08:08;;;;;;;17.75;9.27;;;17.70;99.90;;;;;;4954182;29;20396;-86
2023/06/20 00:10:34;;;;;;;13.90;9.10;;;17.60;99.90;;;;;;4953977;28;20044;-86
2023/06/20 00:12:59;;;;;;;14.60;8.38;;;17.70;99.90;;;;;;4953661;29;20065;-86
2023/06/20 00:15:26;;;;;;;16.38;10.10;;;17.60;99.90;;;;;;4937244;29;20083;-86
2023/06/20 00:17:55;;;;;;;15.30;9.25;;;18.00;99.90;;;;;;4954011;29;20122;-86
2023/06/20 00:20:21;;;;;;;15.40;9.40;;;17.70;99.90;;;;;;4936906;29;20039;-87
2023/06/20 00:22:50;;;;;;;14.07;8.93;;;17.70;99.90;;;;;;4954186;29;20098;-86
2023/06/20 00:25:17;;;;;;;18.92;9.30;;;17.60;99.90;;;;;;4953422;28;20102;-86
2023/06/20 00:27:43;;;;;;;16.83;9.70;;;17.50;99.90;;;;;;4937112;29;20051;-87
2023/06/20 00:30:09;;;;;;;18.08;9.52;;;17.50;99.90;;;;;;4954379;28;20122;-87
2023/06/20 00:32:58;;;;;;;18.50;10.02;;;17.50;99.90;;;;;;4953889;29;20083;-86
2023/06/20 00:35:21;;;;;;;15.93;9.60;;;17.50;99.90;;;;;;4936318;29;20146;-86
2023/06/20 00:37:46;;;;;;;17.08;10.32;;;17.70;99.90;;;;;;4937260;29;20090;-86
2023/06/20 00:40:19;;;;;;;18.75;10.13;;;17.70;99.90;;;;;;4953461;28;20484;-86
2023/06/20 00:42:56;;;;;;;20.67;10.05;;;17.50;99.90;;;;;;4954445;29;20043;-86
2023/06/20 00:45:30;;;;;;;18.40;10.30;;;18.10;99.90;;;;;;4936578;29;20039;-86
2023/06/20 00:48:00;;;;;;;17.27;9.90;;;17.40;99.90;;;;;;4936840;29;20051;-86
2023/06/20 00:50:43;;;;;;;18.90;10.20;;;17.40;99.90;;;;;;4954667;28;20071;-86
2023/06/20 00:53:19;;;;;;;17.08;9.98;;;17.20;99.90;;;;;;4936112;29;20047;-86
2023/06/20 00:55:50;;;;;;;16.08;10.05;;;17.00;99.90;;;;;;4936734;29;20039;-86
2023/06/20 00:58:30;;;;;;;15.35;10.05;;;17.50;99.90;;;;;;4954156;29;20078;-86
2023/06/20 01:00:56;;;;;;;17.77;10.30;;;17.30;99.90;;;;;;4936192;29;20055;-86
2023/06/20 01:03:22;;;;;;;18.90;10.85;;;17.40;99.90;;;;;;4937160;28;20043;-86
2023/06/20 01:06:04;;;;;;;16.02;9.98;;;17.50;99.90;;;;;;4940245;29;20500;-86
2023/06/20 01:08:47;;;;;;;18.48;10.60;;;17.40;99.90;;;;;;4940321;29;20051;-86
2023/06/20 01:11:35;;;;;;;17.85;10.48;;;17.40;99.90;;;;;;4940228;29;20047;-86
2023/06/20 01:14:26;;;;;;;17.85;10.63;;;17.40;99.90;;;;;;4936230;29;20055;-87
2023/06/20 01:17:14;;;;;;;19.58;10.50;;;17.30;99.90;;;;;;4936968;29;20056;-86
2023/06/20 01:20:09;;;;;;;17.00;11.05;;;17.30;99.90;;;;;;4939269;29;20082;-86
2023/06/20 01:22:49;;;;;;;18.77;11.23;;;17.30;99.90;;;;;;4938830;29;20044;-87
2023/06/20 01:25:25;;;;;;;17.70;11.27;;;17.30;99.90;;;;;;4940527;29;20046;-86
2023/06/20 01:27:59;;;;;;;17.55;11.15;;;17.50;99.90;;;;;;4956024;29;20055;-86
2023/06/20 01:30:43;;;;;;;18.77;11.45;;;17.30;99.90;;;;;;4949007;29;20545;-86
2023/06/20 01:33:32;;;;;;;18.15;12.07;;;17.20;99.90;;;;;;4936546;29;20070;-86
2023/06/20 01:36:03;;;;;;;17.90;11.93;;;17.30;99.90;;;;;;4948219;29;20411;-86
2023/06/20 01:38:48;;;;;;;18.23;11.40;;;17.20;99.90;;;;;;4955900;29;20121;-86
2023/06/20 01:41:16;;;;;;;19.15;11.52;;;17.20;99.90;;;;;;4954505;29;20054;-86
2023/06/20 01:43:44;;;;;;;19.20;11.63;;;17.20;99.90;;;;;;4957014;28;20079;-87
2023/06/20 01:46:20;;;;;;;19.00;11.75;;;17.20;99.90;;;;;;4941911;29;20408;-86
2023/06/20 01:48:48;;;;;;;18.45;11.90;;;17.20;99.90;;;;;;4937177;29;20131;-86
2023/06/20 01:51:24;;;;;;;19.55;11.52;;;17.20;99.90;;;;;;4936559;29;20043;-86
2023/06/20 01:53:51;;;;;;;19.58;13.27;;;17.20;99.90;;;;;;4937042;29;20052;-86
2023/06/20 01:56:17;;;;;;;19.90;11.98;;;17.20;99.90;;;;;;4935722;29;20515;-87
2023/06/20 01:58:44;;;;;;;19.98;11.38;;;17.90;99.90;;;;;;4936784;29;20044;-86
2023/06/20 02:01:11;;;;;;;17.65;11.35;;;17.50;99.90;;;;;;4937205;29;20531;-86
2023/06/20 02:03:41;;;;;;;19.55;12.23;;;17.10;99.90;;;;;;4935416;29;20048;-86
2023/06/20 02:06:15;;;;;;;20.77;12.38;;;17.10;99.90;;;;;;4935838;29;20364;-86
2023/06/20 02:08:47;;;;;;;19.48;12.25;;;17.10;99.90;;;;;;4936138;29;20126;-86
2023/06/20 02:11:14;;;;;;;21.42;11.85;;;17.10;99.90;;;;;;4935007;29;20550;-86
2023/06/20 02:13:41;;;;;;;21.23;12.07;;;17.10;99.90;;;;;;4935895;29;20059;-86
2023/06/20 02:16:08;;;;;;;17.83;11.65;;;17.10;99.90;;;;;;4947544;28;20035;-86
2023/06/20 02:18:34;;;;;;;20.02;12.40;;;17.70;99.90;;;;;;4954999;29;20047;-86
2023/06/20 02:21:09;;;;;;;19.42;12.77;;;17.10;99.90;;;;;;4944528;29;20043;-87
2023/06/20 02:23:38;;;;;;;20.92;12.88;;;17.00;99.90;;;;;;4935389;29;20499;-86
2023/06/20 02:26:09;;;;;;;20.75;12.23;;;17.00;99.90;;;;;;4935573;29;20047;-87
2023/06/20 02:28:40;;;;;;;22.42;13.73;;;17.00;99.90;;;;;;4936414;29;20083;-87
2023/06/20 02:31:24;;;;;;;20.23;13.32;;;17.00;99.90;;;;;;4935138;29;20051;-87
2023/06/20 02:33:53;;;;;;;21.40;13.43;;;17.00;99.90;;;;;;4937623;29;20517;-86
2023/06/20 02:36:25;;;;;;;18.45;13.00;;;17.60;99.90;;;;;;4936988;29;20043;-87
2023/06/20 02:38:52;;;;;;;21.52;13.48;;;17.20;99.90;;;;;;4935342;29;20043;-87
2023/06/20 02:41:19;;;;;;;22.65;13.30;;;17.60;99.90;;;;;;4946994;29;20047;-86
2023/06/20 02:43:45;;;;;;;19.90;13.00;;;17.90;99.90;;;;;;4954818;29;20049;-87
2023/06/20 02:46:34;;;;;;;19.90;13.00;;;17.10;99.90;;;;;;4953988;29;20426;-86
2023/06/20 02:49:17;;;;;;;21.60;13.57;;;17.10;99.90;;;;;;4950275;29;20059;-86
2023/06/20 02:52:10;;;;;;;19.67;13.05;;;17.10;99.90;;;;;;4955011;28;20087;-87
2023/06/20 02:54:48;;;;;;;21.05;12.65;;;17.10;99.90;;;;;;4956324;29;20047;-87
2023/06/20 02:57:18;;;;;;;21.15;12.70;;;17.20;99.90;;;;;;4954353;29;20058;-85
2023/06/20 02:59:46;;;;;;;20.02;12.68;;;17.10;99.90;;;;;;4954873;28;20058;-86
2023/06/20 03:02:16;;;;;;;22.75;13.40;;;17.40;99.90;;;;;;4954321;29;20403;-86
2023/06/20 03:04:44;;;;;;;20.90;13.05;;;17.60;99.90;;;;;;4954601;29;20053;-86
2023/06/20 03:07:10;;;;;;;24.80;12.88;;;17.30;99.90;;;;;;4950127;29;20060;-86
2023/06/20 03:09:37;;;;;;;21.58;13.20;;;17.20;99.90;;;;;;4954271;29;20055;-87
2023/06/20 03:12:04;;;;;;;21.45;13.10;;;17.10;99.90;;;;;;4955536;28;20035;-87
2023/06/20 03:14:31;;;;;;;20.63;12.25;;;17.20;99.90;;;;;;4974240;28;20531;-87
2023/06/20 03:17:09;;;;;;;19.30;12.18;;;18.00;99.90;;;;;;4974775;28;20047;-87
2023/06/20 03:19:42;;;;;;;21.42;12.65;;;17.20;99.90;;;;;;4957585;28;20546;-87
2023/06/20 03:22:07;;;;;;;21.50;12.45;;;17.60;99.90;;;;;;4974091;28;20511;-87
2023/06/20 03:24:35;;;;;;;19.25;12.32;;;17.20;99.90;;;;;;4974956;28;20085;-87
2023/06/20 03:27:00;;;;;;;21.33;12.00;;;17.30;99.90;;;;;;4955655;28;20050;-86
2023/06/20 03:29:26;;;;;;;21.73;12.60;;;17.20;99.90;;;;;;4956754;28;20039;-87
2023/06/20 03:31:51;;;;;;;19.45;11.95;;;17.50;99.90;;;;;;4974713;28;20035;-86
2023/06/20 03:34:17;;;;;;;18.17;11.77;;;17.20;99.90;;;;;;4973353;28;20046;-86
2023/06/20 03:36:43;;;;;;;20.63;13.15;;;17.40;99.90;;;;;;4957112;28;20046;-87
2023/06/20 03:39:09;;;;;;;19.73;12.32;;;17.30;99.90;;;;;;4974397;28;20057;-87
2023/06/20 03:41:35;;;;;;;20.27;12.30;;;17.30;99.90;;;;;;4956028;28;20034;-87
2023/06/20 03:44:01;;;;;;;18.48;12.60;;;18.10;99.90;;;;;;4974418;28;20046;-87
2023/06/20 03:46:26;;;;;;;20.67;12.32;;;17.30;99.90;;;;;;4956752;28;20395;-86
2023/06/20 03:48:52;;;;;;;19.27;12.50;;;17.30;99.90;;;;;;4955930;28;20054;-87
2023/06/20 03:51:23;;;;;;;19.95;12.05;;;18.20;99.90;;;;;;4973705;28;20105;-86
2023/06/20 03:53:49;;;;;;;19.80;11.90;;;17.60;99.90;;;;;;4956869;28;20097;-86
2023/06/20 03:56:15;;;;;;;21.30;12.98;;;17.40;99.90;;;;;;4955818;28;20046;-87
2023/06/20 03:58:40;;;;;;;18.90;12.02;;;17.40;99.90;;;;;;4956837;28;20399;-87
2023/06/20 04:01:06;;;;;;;21.50;12.82;;;17.90;99.90;;;;;;4973664;28;20489;-87
2023/06/20 04:03:32;;;;;;;19.40;11.93;;;17.40;99.90;;;;;;4952017;29;20051;-86
2023/06/20 04:06:01;;;;;;;18.08;11.68;;;17.50;99.90;;;;;;4936725;29;20043;-86
2023/06/20 04:08:30;;;;;;;17.80;11.45;;;17.50;99.90;;;;;;4937422;29;20452;-87
2023/06/20 04:10:58;;;;;;;17.92;11.95;;;17.90;99.90;;;;;;4936589;29;20035;-87
2023/06/20 04:13:24;;;;;;;21.73;11.65;;;17.80;99.90;;;;;;4954626;29;20058;-86
2023/06/20 04:15:50;;;;;;;18.67;11.60;;;17.90;99.90;;;;;;4954976;28;20478;-87
2023/06/20 04:18:15;;;;;;;19.38;11.20;;;18.60;99.90;;;;;;4953568;29;20074;-87
2023/06/20 04:20:44;;;;;;;19.90;12.45;;;17.70;99.90;;;;;;4936767;28;20048;-86
2023/06/20 04:23:09;;;;;;;18.98;10.98;;;17.80;99.90;;;;;;4953996;29;20054;-87
2023/06/20 04:25:35;;;;;;;17.73;11.75;;;17.90;99.90;;;;;;4954494;28;20039;-86
2023/06/20 04:28:01;;;;;;;19.33;11.45;;;18.30;99.90;;;;;;4959638;23;20065;-87
2023/06/20 04:30:27;;;;;;;19.02;11.73;;;17.80;99.90;;;;;;4992481;28;20558;-87
2023/06/20 04:32:53;;;;;;;17.70;11.32;;;17.80;99.90;;;;;;4956962;28;20129;-87
2023/06/20 04:35:19;;;;;;;18.80;10.85;;;17.90;99.90;;;;;;4956343;28;20403;-86
2023/06/20 04:37:51;;;;;;;20.40;11.30;;;18.50;99.90;;;;;;4973202;28;20050;-86
2023/06/20 04:40:26;;;;;;;17.88;11.48;;;17.90;99.90;;;;;;4976425;28;20289;-87
2023/06/20 04:42:52;;;;;;;17.30;10.65;;;18.10;99.90;;;;;;4960179;28;20376;-86
2023/06/20 04:45:17;;;;;;;19.45;11.52;;;18.10;99.90;;;;;;4958999;28;20039;-86
2023/06/20 04:47:43;;;;;;;16.20;10.70;;;18.00;99.90;;;;;;4960194;28;20043;-87
2023/06/20 04:50:10;;;;;;;18.38;10.70;;;18.20;99.90;;;;;;4960136;28;20067;-86
2023/06/20 04:52:36;;;;;;;17.23;10.50;;;18.10;99.90;;;;;;4960173;28;20050;-87
2023/06/20 04:55:02;;;;;;;20.52;11.63;;;18.10;99.90;;;;;;4959873;28;20070;-87
2023/06/20 04:57:32;;;;;;;16.77;10.15;;;18.20;99.90;;;;;;4973522;28;20402;-86
2023/06/20 04:59:58;;;;;;;16.27;10.68;;;18.20;99.90;;;;;;4978417;28;20049;-87
2023/06/20 05:02:30;;;;;;;18.27;10.73;;;18.20;99.90;;;;;;4979431;28;20153;-87
2023/06/20 05:04:55;;;;;;;16.90;11.02;;;18.20;99.90;;;;;;4979258;28;20042;-87
2023/06/20 05:07:24;;;;;;;17.48;11.55;;;18.50;99.90;;;;;;4977980;28;20409;-87
2023/06/20 05:09:50;;;;;;;16.02;10.93;;;18.40;99.90;;;;;;4979479;28;20046;-87
2023/06/20 05:12:18;;;;;;;21.67;11.05;;;19.10;99.90;;;;;;4977697;28;20077;-87
2023/06/20 05:14:59;;;;;;;16.90;10.88;;;18.50;99.90;;;;;;4996921;28;20042;-86
2023/06/20 05:17:25;;;;;;;19.92;11.23;;;18.70;99.90;;;;;;4978900;28;20129;-87
2023/06/20 05:19:51;;;;;;;17.35;10.85;;;18.70;99.90;;;;;;4978884;28;20121;-88
2023/06/20 05:22:22;;;;;;;17.58;11.00;;;18.90;99.90;;;;;;4991967;23;20574;-87
2023/06/20 05:24:48;;;;;;;15.65;10.55;;;18.90;99.90;;;;;;4959253;28;20129;-87
2023/06/20 05:27:13;;;;;;;16.92;10.50;;;19.00;99.90;;;;;;4959282;28;20129;-87
2023/06/20 05:29:39;;;;;;;17.48;10.52;;;19.10;99.90;;;;;;4984936;28;20089;-87
2023/06/20 05:32:20;;;;;;;17.10;11.10;;;19.20;99.90;;;;;;4976652;28;20487;-87
2023/06/20 05:34:45;;;;;;;16.50;11.05;;;19.30;99.90;;;;;;4975983;28;20100;-86
2023/06/20 05:37:18;;;;;;;16.52;10.45;;;20.10;99.90;;;;;;4958766;28;20145;-87
2023/06/20 05:39:59;;;;;;;18.58;10.32;;;19.40;99.90;;;;;;4976894;28;20043;-87
2023/06/20 05:42:25;;;;;;;16.48;10.85;;;19.60;99.90;;;;;;4958479;28;20054;-87
2023/06/20 05:44:50;;;;;;;17.98;11.07;;;19.50;99.90;;;;;;4959512;28;20046;-87
2023/06/20 05:47:19;;;;;;;16.15;10.93;;;19.60;99.90;;;;;;4958629;28;20422;-87
2023/06/20 05:49:50;;;;;;;17.63;10.38;;;19.90;99.90;;;;;;4976125;28;20050;-86
2023/06/20 05:52:15;;;;;;;17.02;10.98;;;19.70;99.90;;;;;;4976161;28;20376;-85
2023/06/20 05:54:43;;;;;;;16.80;11.05;;;20.10;99.90;;;;;;4976100;28;20046;-84
2023/06/20 05:57:18;;;;;;;17.75;11.23;;;19.60;99.90;;;;;;4983605;28;20121;-81
2023/06/20 05:59:44;;;;;;;17.50;10.73;;;19.70;99.90;;;;;;4977650;28;20125;-80
2023/06/20 06:02:24;;;;;;;17.75;11.20;;;19.80;99.90;;;;;;4994251;28;20050;-81
2023/06/20 06:04:50;;;;;;;16.17;10.50;;;19.80;99.90;;;;;;4983526;28;20086;-81
2023/06/20 06:07:15;;;;;;;17.52;10.93;;;19.80;99.90;;;;;;4976103;28;20078;-81
2023/06/20 06:09:41;;;;;;;16.88;11.45;;;20.70;99.90;;;;;;4975234;28;20050;-81
2023/06/20 06:12:07;;;;;;;17.88;12.10;;;20.00;99.90;;;;;;4975515;28;20042;-81
2023/06/20 06:14:33;;;;;;;16.92;11.32;;;19.90;99.90;;;;;;4958651;28;20083;-81
2023/06/20 06:16:59;;;;;;;19.52;11.82;;;19.90;99.90;;;;;;4974991;28;20086;-81
2023/06/20 06:19:24;;;;;;;18.65;11.88;;;20.10;99.90;;;;;;4976020;28;20118;-79
2023/06/20 06:21:50;;;;;;;17.88;11.88;;;19.90;99.90;;;;;;4987387;28;20483;-79
2023/06/20 06:24:16;;;;;;;18.58;11.93;;;20.00;99.90;;;;;;4986359;28;20607;-78
2023/06/20 06:26:41;;;;;;;18.73;12.48;;;20.00;99.90;;;;;;4975137;28;20461;-79
2023/06/20 06:29:07;;;;;;;23.58;12.02;;;20.00;99.90;;;;;;4957615;28;20043;-79
2023/06/20 06:31:34;;;;;;;17.92;12.23;;;20.00;99.90;;;;;;4974550;28;20521;-79
2023/06/20 06:34:02;;;;;;;18.45;12.02;;;20.00;99.90;;;;;;4975214;28;20078;-78
2023/06/20 06:36:32;;;;;;;17.60;11.65;;;20.00;99.90;;;;;;4958193;28;20053;-79
2023/06/20 06:39:00;;;;;;;17.40;11.80;;;20.10;99.90;;;;;;4957348;28;20057;-77
2023/06/20 06:41:26;;;;;;;18.92;12.15;;;20.10;99.90;;;;;;4975084;28;20603;-77
2023/06/20 06:43:52;;;;;;;17.55;11.52;;;20.10;99.90;;;;;;4974752;28;20066;-79
2023/06/20 06:46:18;;;;;;;19.40;11.93;;;20.10;99.90;;;;;;4957581;28;20056;-79
2023/06/20 06:48:43;;;;;;;19.90;12.57;;;20.10;99.90;;;;;;4977557;28;20043;-79
2023/06/20 06:51:09;;;;;;;20.25;12.25;;;20.10;99.90;;;;;;4973611;28;20130;-79
2023/06/20 06:53:35;;;;;;;18.90;12.65;;;20.20;99.90;;;;;;4975279;28;20129;-79
2023/06/20 06:56:00;;;;;;;17.38;12.30;;;20.20;99.90;;;;;;4975210;28;20073;-79
2023/06/20 06:58:26;;;;;;;19.02;12.68;;;20.20;99.90;;;;;;4974467;28;20049;-79
2023/06/20 07:00:52;;;;;;;16.65;11.90;;;20.20;99.90;;;;;;4977586;28;20034;-79
2023/06/20 07:03:18;;;;;;;17.75;12.00;;;20.10;99.90;;;;;;4982992;28;20054;-79
2023/06/20 07:05:43;;;;;;;20.80;12.10;;;20.30;99.90;;;;;;4974770;28;20395;-80
2023/06/20 07:08:09;;;;;;;17.23;12.45;;;20.30;99.90;;;;;;4957628;28;20407;-79
2023/06/20 07:10:34;;;;;;;18.70;12.20;;;20.30;99.90;;;;;;4957741;28;20051;-81
2023/06/20 07:13:00;;;;;;;17.73;12.07;;;20.40;99.90;;;;;;4956792;28;20410;-81
2023/06/20 07:15:26;;;;;;;18.40;12.48;;;20.50;99.90;;;;;;4957643;28;20091;-81
2023/06/20 07:17:52;;;;;;;19.63;12.35;;;20.50;99.90;;;;;;4957235;28;20042;-81
2023/06/20 07:20:18;;;;;;;17.20;12.10;;;20.50;99.90;;;;;;4956337;28;20054;-81
2023/06/20 07:22:45;;;;;;;18.05;11.98;;;20.50;99.90;;;;;;4974740;28;20042;-80
2023/06/20 07:25:11;;;;;;;20.42;12.75;;;20.50;99.90;;;;;;4974117;28;20384;-80
2023/06/20 07:27:36;;;;;;;17.35;12.20;;;20.60;99.90;;;;;;4973708;28;20507;-81
2023/06/20 07:30:05;;;;;;;18.52;13.23;;;20.60;99.90;;;;;;4956755;28;20078;-81
2023/06/20 07:32:31;;;;;;;19.42;12.80;;;20.50;99.90;;;;;;4964221;28;20056;-80
2023/06/20 07:34:56;;;;;;;20.35;12.60;;;20.60;99.90;;;;;;4963573;28;20410;-81
2023/06/20 07:37:22;;;;;;;19.88;12.50;;;20.90;99.90;;;;;;4980828;28;20090;-80
2023/06/20 07:39:48;;;;;;;17.23;12.43;;;20.60;99.90;;;;;;4974045;28;20074;-81
2023/06/20 07:42:14;;;;;;;18.27;13.07;;;20.70;99.90;;;;;;4973028;28;20506;-81
2023/06/20 07:44:39;;;;;;;16.35;12.32;;;20.80;99.90;;;;;;4956761;28;20817;-80
2023/06/20 07:47:05;;;;;;;21.02;13.10;;;21.00;99.90;;;;;;4973269;28;20066;-81
2023/06/20 07:49:31;;;;;;;18.45;13.25;;;21.40;99.90;;;;;;4956818;28;20053;-81
2023/06/20 07:51:57;;;;;;;16.55;12.30;;;21.80;99.90;;;;;;4980142;28;20042;-81
2023/06/20 07:54:22;;;;;;;17.65;12.82;;;22.00;99.90;;;;;;4978068;28;20073;-81
2023/06/20 07:56:48;;;;;;;18.45;12.15;;;22.10;99.90;;;;;;4973603;28;20046;-81
2023/06/20 07:59:14;;;;;;;16.27;12.55;;;22.30;99.90;;;;;;4978357;28;20122;-82
2023/06/20 08:01:39;;;;;;;17.00;12.40;;;22.30;99.90;;;;;;4988330;28;20047;-82
2023/06/20 08:04:05;;;;;;;16.25;11.95;;;22.90;99.90;;;;;;4955606;28;20093;-82
2023/06/20 08:06:31;;;;;;;18.63;11.90;;;22.70;99.90;;;;;;4973934;28;20451;-82
2023/06/20 08:08:56;;;;;;;17.08;12.00;;;22.60;99.90;;;;;;4972713;28;20093;-81
2023/06/20 08:11:23;;;;;;;16.48;11.68;;;22.80;99.90;;;;;;4973465;28;20467;-81
2023/06/20 08:13:49;;;;;;;19.45;12.45;;;22.70;99.90;;;;;;4971997;28;20090;-79
2023/06/20 08:16:15;;;;;;;16.85;12.05;;;22.80;99.90;;;;;;4973076;28;20038;-79
2023/06/20 08:18:40;;;;;;;17.10;11.70;;;23.00;99.90;;;;;;4973962;28;20487;-79
2023/06/20 08:21:06;;;;;;;16.25;11.05;;;22.60;99.90;;;;;;4956031;28;20125;-79
2023/06/20 08:23:31;;;;;;;15.57;11.25;;;22.80;99.90;;;;;;4973424;28;20053;-79
2023/06/20 08:25:57;;;;;;;15.60;11.18;;;22.90;99.90;;;;;;4961626;28;20409;-79
2023/06/20 08:28:23;;;;;;;17.33;11.50;;;22.90;99.90;;;;;;4993124;28;20170;-79
2023/06/20 08:30:49;;;;;;;14.95;10.55;;;23.00;99.90;;;;;;4975378;28;20093;-79
2023/06/20 08:33:15;;;;;;;18.10;11.65;;;23.00;99.90;;;;;;4986977;28;20042;-79
2023/06/20 08:35:41;;;;;;;16.25;11.13;;;23.10;99.90;;;;;;4968505;28;20129;-79
2023/06/20 08:38:07;;;;;;;16.10;11.15;;;23.20;99.90;;;;;;4991552;28;20218;-80
2023/06/20 08:40:34;;;;;;;17.58;11.30;;;23.40;99.90;;;;;;4973636;28;20105;-80
2023/06/20 08:43:00;;;;;;;15.52;11.27;;;23.40;99.90;;;;;;4956049;28;20510;-79
2023/06/20 08:45:27;;;;;;;16.85;11.98;;;23.50;99.90;;;;;;4974512;28;20035;-80
2023/06/20 08:47:58;;;;;;;16.50;10.55;;;23.60;99.90;;;;;;4973280;28;20495;-79
2023/06/20 08:50:28;;;;;;;14.88;10.32;;;23.80;99.90;;;;;;4955172;28;20051;-80
2023/06/20 08:52:55;;;;;;;16.00;10.95;;;23.80;99.90;;;;;;4956532;28;20137;-79
2023/06/20 08:55:21;;;;;;;14.50;10.82;;;23.70;99.90;;;;;;4971817;28;20110;-79
2023/06/20 08:57:47;;;;;;;17.15;10.40;;;23.80;99.90;;;;;;4971633;28;20170;-79
2023/06/20 09:00:17;;;;;;;15.32;10.95;;;24.30;99.90;;;;;;4987431;28;20104;-78
2023/06/20 09:02:43;;;;;;;16.27;10.27;;;24.40;99.90;;;;;;4992813;28;20045;-78
2023/06/20 09:05:09;;;;;;;14.45;9.52;;;24.70;99.90;;;;;;4973244;28;20401;-77
2023/06/20 09:07:36;;;;;;;13.13;9.60;;;25.00;99.90;;;;;;4974757;28;20046;-78
2023/06/20 09:10:02;;;;;;;13.35;9.20;;;25.30;99.90;;;;;;4974497;28;20387;-78
2023/06/20 09:12:28;;;;;;;16.17;9.20;;;25.50;99.90;;;;;;4965678;28;20047;-78
2023/06/20 09:14:54;;;;;;;13.52;9.57;;;25.60;99.90;;;;;;4981674;28;20043;-78
2023/06/20 09:17:19;;;;;;;13.70;9.63;;;25.70;99.90;;;;;;4981976;28;20042;-79
2023/06/20 09:19:46;;;;;;;13.30;9.70;;;25.90;99.90;;;;;;4990293;28;20131;-77
2023/06/20 09:22:12;;;;;;;14.95;9.20;;;26.00;99.90;;;;;;4973599;28;20055;-79
2023/06/20 09:24:45;;;;;;;14.77;9.98;;;26.00;99.90;;;;;;4970568;28;20070;-78
2023/06/20 09:27:11;;;;;;;12.73;8.93;;;26.00;99.90;;;;;;4975504;28;20045;-77
2023/06/20 09:30:00;;;;;;;13.38;8.85;;;26.10;99.90;;;;;;4986470;28;20049;-77
2023/06/20 09:32:25;;;;;;;14.48;8.13;;;26.30;99.90;;;;;;4968527;28;20050;-77
2023/06/20 09:34:51;;;;;;;13.30;7.80;;;26.50;99.90;;;;;;4967205;28;20039;-78
2023/06/20 09:37:17;;;;;;;13.65;7.80;;;26.80;99.90;;;;;;4985378;28;20074;-78
2023/06/20 09:39:43;;;;;;;12.95;8.05;;;26.70;99.90;;;;;;4983468;28;20069;-81
2023/06/20 09:42:15;;;;;;;10.95;7.57;;;26.90;99.90;;;;;;4968557;28;20046;-80
2023/06/20 09:44:41;;;;;;;10.90;7.35;;;27.00;99.80;;;;;;4984097;28;20046;-80
2023/06/20 09:47:07;;;;;;;14.45;7.45;;;27.00;99.90;;;;;;4969923;28;20030;-80
2023/06/20 09:49:35;;;;;;;12.43;7.13;;;27.10;99.50;;;;;;4983997;28;20052;-80
2023/06/20 09:52:07;;;;;;;11.45;7.50;;;27.10;99.40;;;;;;4968630;28;20047;-80
2023/06/20 09:54:55;;;;;;;12.57;7.43;;;27.10;98.50;;;;;;4983460;28;20101;-80
2023/06/20 09:57:26;;;;;;;11.20;6.22;;;27.00;98.50;;;;;;4968371;28;20046;-81
2023/06/20 09:59:55;;;;;;;10.95;6.22;;;27.10;99.00;;;;;;4984632;28;20086;-81
2023/06/20 10:02:24;;;;;;;13.00;6.90;;;27.50;99.10;;;;;;4983863;28;20038;-80
2023/06/20 10:04:50;;;;;;;11.88;8.15;;;27.70;98.60;;;;;;4986079;28;20060;-80
2023/06/20 10:07:16;;;;;;;11.20;6.90;;;27.80;97.90;;;;;;4984912;28;20117;-82
2023/06/20 10:09:44;;;;;;;12.48;7.35;;;27.90;97.70;;;;;;4961199;28;20046;-82
2023/06/20 10:12:13;;;;;;;11.35;7.65;;;27.90;97.60;;;;;;4958655;28;20066;-83
2023/06/20 10:14:39;;;;;;;10.93;7.03;;;27.90;97.50;;;;;;4981108;28;20049;-82
2023/06/20 10:17:09;;;;;;;12.50;7.78;;;28.30;97.90;;;;;;4977131;28;20129;-82
2023/06/20 10:19:51;;;;;;;11.65;7.85;;;27.80;96.80;;;;;;4977527;28;20513;-82
2023/06/20 10:22:35;;;;;;;13.10;8.52;;;27.90;97.50;;;;;;4976102;28;20080;-82
2023/06/20 10:25:12;;;;;;;12.65;7.90;;;28.00;96.90;;;;;;4994830;28;20097;-82
2023/06/20 10:27:42;;;;;;;11.95;8.32;;;28.10;97.80;;;;;;4974464;28;20042;-82
2023/06/20 10:30:13;;;;;;;11.82;8.05;;;28.00;97.30;;;;;;4974836;28;20055;-82
2023/06/20 10:33:20;;;;;;;13.25;8.15;;;28.00;97.80;;;;;;4957985;28;20049;-82
2023/06/20 10:35:50;;;;;;;11.50;7.45;;;28.00;97.20;;;;;;4964198;28;20047;-82
2023/06/20 10:38:16;;;;;;;10.70;7.43;;;28.00;97.20;;;;;;4973951;28;20498;-83
2023/06/20 10:40:41;;;;;;;11.32;6.78;;;27.90;97.10;;;;;;4958182;28;20046;-82
2023/06/20 10:43:18;;;;;;;11.65;7.40;;;27.80;97.10;;;;;;4956626;28;20070;-82
2023/06/20 10:46:00;;;;;;;13.13;7.80;;;27.90;96.40;;;;;;4958046;28;20051;-82
2023/06/20 10:48:28;;;;;;;11.88;6.90;;;27.90;96.30;;;;;;4975318;28;20054;-80
2023/06/20 10:51:00;;;;;;;12.50;7.60;;;27.80;96.80;;;;;;4974571;28;20039;-79
2023/06/20 10:53:29;;;;;;;13.25;7.70;;;27.90;96.60;;;;;;4975370;28;20482;-81
2023/06/20 10:55:55;;;;;;;11.73;8.27;;;28.10;96.80;;;;;;4969229;28;20048;-81
2023/06/20 10:58:20;;;;;;;10.48;7.30;;;28.20;96.60;;;;;;4975820;28;20129;-81
2023/06/20 11:00:47;;;;;;;12.13;7.65;;;28.20;96.60;;;;;;4981463;28;20410;-81
2023/06/20 11:03:13;;;;;;;12.80;7.90;;;28.40;96.50;;;;;;4979747;28;20054;-82
2023/06/20 11:05:39;;;;;;;12.38;7.28;;;28.50;96.50;;;;;;4974142;28;20045;-81
2023/06/20 11:08:07;;;;;;;10.95;7.35;;;28.90;96.50;;;;;;4957087;28;20399;-81
2023/06/20 11:10:34;;;;;;;11.32;7.45;;;29.40;96.30;;;;;;4979955;28;20046;-81
2023/06/20 11:13:02;;;;;;;14.25;8.32;;;29.50;95.50;;;;;;4964787;28;20578;-80
2023/06/20 11:15:35;;;;;;;12.57;8.63;;;29.60;95.10;;;;;;4985890;28;20042;-79
2023/06/20 11:18:03;;;;;;;11.48;7.90;;;29.80;95.20;;;;;;4964346;28;20043;-80
2023/06/20 11:20:29;;;;;;;11.55;7.63;;;29.90;95.00;;;;;;4983367;28;20043;-80
2023/06/20 11:22:58;;;;;;;12.20;7.57;;;29.70;94.90;;;;;;4968288;28;20129;-79
2023/06/20 11:25:28;;;;;;;11.02;6.85;;;29.60;94.30;;;;;;4964343;28;20398;-81
2023/06/20 11:27:55;;;;;;;11.43;6.70;;;29.70;94.40;;;;;;4969030;28;20140;-80
2023/06/20 11:30:28;;;;;;;10.23;6.60;;;30.00;94.20;;;;;;4981768;28;20104;-79
2023/06/20 11:33:01;;;;;;;;;;;30.40;93.90;;;;;;4965885;28;20360;-79
2023/06/20 11:35:54;;;;;;;10.32;6.57;;;30.40;93.30;;;;;;4982176;28;19922;-80
2023/06/20 11:38:29;;;;;;;12.68;6.97;;;30.20;93.10;;;;;;4975446;28;20035;-79
2023/06/20 11:41:06;;;;;;;10.38;6.75;;;30.10;93.10;;;;;;4965077;28;20085;-79
2023/06/20 11:43:40;;;;;;;10.43;5.95;;;30.00;92.60;;;;;;4966748;28;20526;-80
2023/06/20 11:46:11;;;;;;;10.27;6.05;;;29.60;93.00;;;;;;4963391;28;20402;-79
2023/06/20 11:48:37;;;;;;;11.63;6.10;;;29.60;93.50;;;;;;4984333;28;20054;-80
2023/06/20 11:51:05;;;;;;;12.60;6.40;;;29.70;93.60;;;;;;4964285;28;20093;-79
2023/06/20 11:53:35;;;;;;;11.20;6.13;;;30.20;93.40;;;;;;4982807;28;20406;-79
2023/06/20 11:56:04;;;;;;;9.55;5.95;;;30.30;92.80;;;;;;4963800;28;20070;-79
2023/06/20 11:58:43;;;;;;;10.77;6.72;;;30.00;93.00;;;;;;4965401;28;20042;-79
2023/06/20 12:01:18;;;;;;;11.43;5.93;;;30.10;92.60;;;;;;4980607;28;20381;-79
2023/06/20 12:03:45;;;;;;;9.57;6.13;;;30.40;93.30;;;;;;4982510;28;20047;-80
2023/06/20 12:06:31;;;;;;;11.57;6.63;;;30.60;92.70;;;;;;4967091;28;20039;-80
2023/06/20 12:08:59;;;;;;;9.60;6.10;;;30.80;91.80;;;;;;4983403;28;20070;-80
2023/06/20 12:11:26;;;;;;;11.27;6.75;;;31.40;92.40;;;;;;4965713;28;20038;-79
2023/06/20 12:13:54;;;;;;;12.20;7.35;;;31.60;92.00;;;;;;4965767;28;20121;-81
2023/06/20 12:16:21;;;;;;;10.52;6.63;;;31.10;91.80;;;;;;4963379;28;20390;-80
2023/06/20 12:18:48;;;;;;;11.57;6.88;;;30.80;92.20;;;;;;4965154;28;20126;-80
2023/06/20 12:21:14;;;;;;;9.65;6.47;;;30.50;92.20;;;;;;4980485;28;20042;-80
2023/06/20 12:23:40;;;;;;;10.25;7.30;;;30.10;92.50;;;;;;4964634;28;20102;-80
2023/06/20 12:26:06;;;;;;;11.52;7.45;;;29.70;92.60;;;;;;4964599;28;20039;-79
2023/06/20 12:28:32;;;;;;;11.38;7.78;;;29.50;92.90;;;;;;4982119;28;20050;-79
2023/06/20 12:30:59;;;;;;;11.70;7.85;;;29.30;93.40;;;;;;4983169;28;20395;-80
2023/06/20 12:33:25;;;;;;;11.75;7.40;;;29.10;93.20;;;;;;4975518;28;20042;-80
2023/06/20 12:35:51;;;;;;;10.85;7.57;;;29.00;93.50;;;;;;4984275;28;20034;-80
2023/06/20 12:38:17;;;;;;;12.70;7.43;;;29.00;93.50;;;;;;4973398;28;20049;-80
2023/06/20 12:40:42;;;;;;;9.85;6.72;;;29.40;93.50;;;;;;4956292;28;20487;-80